Time;durP1;ratioP1;P1;durP2;ratioP2;P2;SDS_P1;SDS_P2;PMS_P1;PMS_P2;Temp;Humidity;BMP_temperature;BMP_pressure;BME280_temperature;BME280_humidity;BME280_pressure;Samples;Min_cycle;Max_cycle;Signal;HPM_P1;HPM_P2
2020/12/10 00:02:29;;;;;;;50.60;26.63;;;5.70;99.90;;;;;;5066752;28;20643;-70
2020/12/10 00:05:15;;;;;;;46.23;26.00;;;5.80;99.90;;;;;;5064580;28;20662;-70
2020/12/10 00:08:00;;;;;;;45.53;25.90;;;5.80;99.90;;;;;;5062903;28;20754;-68
2020/12/10 00:10:44;;;;;;;51.27;27.80;;;5.80;99.90;;;;;;5063701;28;20722;-69
2020/12/10 00:13:29;;;;;;;46.00;26.23;;;5.80;99.90;;;;;;5062157;28;20609;-68
2020/12/10 00:16:13;;;;;;;48.83;26.87;;;5.70;99.90;;;;;;5067743;28;20635;-68
2020/12/10 00:18:58;;;;;;;49.60;28.10;;;5.70;99.90;;;;;;5062014;28;20663;-69
2020/12/10 00:21:42;;;;;;;49.57;25.70;;;5.80;99.90;;;;;;5060522;28;20655;-69
2020/12/10 00:24:27;;;;;;;49.20;26.00;;;5.70;99.90;;;;;;5062484;28;20604;-70
2020/12/10 00:27:12;;;;;;;46.27;27.23;;;5.80;99.90;;;;;;5065308;28;20621;-69
2020/12/10 00:29:59;;;;;;;54.10;29.37;;;5.80;99.90;;;;;;5053728;28;21298;-68
2020/12/10 00:32:44;;;;;;;52.03;27.67;;;5.70;99.90;;;;;;5043021;28;20702;-68
2020/12/10 00:35:29;;;;;;;51.07;28.00;;;5.70;99.90;;;;;;5045935;28;20650;-69
2020/12/10 00:38:13;;;;;;;59.37;29.37;;;5.70;99.90;;;;;;5045439;28;20837;-69
2020/12/10 00:40:58;;;;;;;54.10;29.43;;;5.70;99.90;;;;;;5043207;28;20658;-70
2020/12/10 00:43:46;;;;;;;61.97;30.80;;;5.70;99.90;;;;;;5052886;28;20657;-68
2020/12/10 00:46:30;;;;;;;65.17;31.73;;;5.80;99.90;;;;;;5048436;28;20602;-68
2020/12/10 00:49:15;;;;;;;64.47;32.70;;;5.80;99.90;;;;;;5045834;28;20614;-69
2020/12/10 00:52:00;;;;;;;63.63;32.50;;;5.80;99.90;;;;;;5043977;28;21038;-68
2020/12/10 00:54:46;;;;;;;68.50;33.33;;;5.80;99.90;;;;;;5044618;28;20613;-68
2020/12/10 00:57:30;;;;;;;73.77;34.30;;;5.80;99.90;;;;;;5046006;28;20756;-68
2020/12/10 01:00:16;;;;;;;64.77;34.00;;;5.70;99.90;;;;;;5036069;28;21259;-69
2020/12/10 01:03:01;;;;;;;69.07;34.00;;;5.90;99.90;;;;;;5043421;28;21587;-68
2020/12/10 01:05:49;;;;;;;68.03;32.90;;;5.70;99.90;;;;;;5037515;28;20969;-69
2020/12/10 01:08:34;;;;;;;65.37;32.70;;;5.70;99.90;;;;;;5034670;28;20688;-68
2020/12/10 01:11:24;;;;;;;63.17;31.07;;;5.80;99.90;;;;;;5045575;28;20688;-69
2020/12/10 01:14:09;;;;;;;66.83;32.80;;;5.80;99.90;;;;;;5040571;28;20639;-69
2020/12/10 01:16:58;;;;;;;66.93;34.10;;;5.70;99.90;;;;;;5054061;28;20638;-69
2020/12/10 01:19:43;;;;;;;58.20;32.43;;;5.70;99.90;;;;;;5041270;28;21580;-70
2020/12/10 01:22:27;;;;;;;59.80;31.17;;;5.70;99.90;;;;;;5046248;28;20657;-69
2020/12/10 01:25:15;;;;;;;65.63;33.97;;;5.70;99.90;;;;;;5043598;28;20637;-70
2020/12/10 01:27:59;;;;;;;54.90;31.90;;;5.70;99.90;;;;;;5044501;28;20621;-68
2020/12/10 01:30:44;;;;;;;60.70;33.47;;;5.70;99.90;;;;;;5052005;28;20644;-68
2020/12/10 01:33:30;;;;;;;62.80;32.60;;;5.70;99.90;;;;;;5062316;28;21187;-68
2020/12/10 01:36:22;;;;;;;57.57;31.10;;;5.60;99.90;;;;;;5062588;28;21093;-69
2020/12/10 01:39:07;;;;;;;60.00;31.07;;;5.70;99.90;;;;;;5060190;28;20628;-69
2020/12/10 01:41:52;;;;;;;49.87;29.30;;;5.70;99.90;;;;;;5061610;28;20710;-69
2020/12/10 01:44:36;;;;;;;54.67;31.87;;;5.70;99.90;;;;;;5062317;28;20620;-69
2020/12/10 01:47:26;;;;;;;57.03;32.00;;;5.70;99.90;;;;;;5060629;28;20588;-69
2020/12/10 01:50:11;;;;;;;55.27;30.40;;;5.70;99.90;;;;;;5056269;28;20720;-69
2020/12/10 01:52:56;;;;;;;57.17;30.73;;;5.70;99.90;;;;;;5034625;28;20686;-68
2020/12/10 01:55:40;;;;;;;57.40;30.63;;;5.70;99.90;;;;;;5042175;28;20700;-68
2020/12/10 01:58:25;;;;;;;53.57;30.47;;;5.70;99.90;;;;;;5041549;28;20626;-68
2020/12/10 02:01:10;;;;;;;57.10;31.10;;;5.70;99.90;;;;;;5039024;28;20723;-68
2020/12/10 02:03:55;;;;;;;55.70;31.50;;;5.70;99.90;;;;;;5044607;28;20601;-69
2020/12/10 02:06:40;;;;;;;57.80;32.60;;;5.70;99.90;;;;;;5041523;28;20594;-69
2020/12/10 02:09:24;;;;;;;58.27;32.43;;;5.70;99.90;;;;;;5042312;28;20983;-68
2020/12/10 02:12:10;;;;;;;54.73;31.77;;;5.70;99.90;;;;;;5041380;28;20653;-69
2020/12/10 02:14:54;;;;;;;59.07;33.10;;;5.70;99.90;;;;;;5040137;28;20597;-69
2020/12/10 02:17:39;;;;;;;55.73;32.80;;;5.70;99.90;;;;;;5041329;28;20941;-68
2020/12/10 02:20:23;;;;;;;58.30;32.40;;;5.80;99.90;;;;;;5047364;28;20660;-68
2020/12/10 02:23:09;;;;;;;57.57;30.90;;;5.80;99.90;;;;;;5060763;28;20659;-69
2020/12/10 02:25:54;;;;;;;55.33;30.87;;;5.80;99.90;;;;;;5059671;28;20628;-69
2020/12/10 02:28:39;;;;;;;59.40;30.77;;;5.70;99.90;;;;;;5062799;28;20588;-68
2020/12/10 02:31:31;;;;;;;53.00;31.23;;;5.80;99.90;;;;;;5062515;22;20724;-66
2020/12/10 02:34:15;;;;;;;50.20;30.40;;;5.70;99.90;;;;;;5019664;28;20638;-66
2020/12/10 02:37:00;;;;;;;57.30;32.50;;;5.70;99.90;;;;;;5017575;28;21223;-67
2020/12/10 02:39:44;;;;;;;55.23;32.30;;;5.70;99.90;;;;;;5015293;28;20665;-68
2020/12/10 02:42:29;;;;;;;54.87;33.53;;;5.70;99.90;;;;;;5028582;28;20649;-66
2020/12/10 02:45:13;;;;;;;57.57;33.10;;;5.70;99.90;;;;;;5019605;28;20712;-66
2020/12/10 02:47:58;;;;;;;60.47;32.83;;;5.70;99.90;;;;;;5027313;28;20725;-67
2020/12/10 02:50:43;;;;;;;53.23;31.90;;;5.60;99.90;;;;;;5025171;28;20789;-67
2020/12/10 02:53:28;;;;;;;58.23;32.70;;;5.70;99.90;;;;;;5010182;28;20654;-66
2020/12/10 02:56:15;;;;;;;54.80;31.50;;;5.70;99.90;;;;;;5023714;28;20704;-67
2020/12/10 02:59:00;;;;;;;60.10;31.70;;;5.70;99.90;;;;;;5002696;28;20625;-67
2020/12/10 03:01:44;;;;;;;55.53;33.20;;;5.70;99.90;;;;;;5024682;28;20662;-67
2020/12/10 03:04:28;;;;;;;55.33;32.20;;;5.70;99.90;;;;;;5015770;28;20623;-66
2020/12/10 03:07:14;;;;;;;51.30;31.27;;;5.70;99.90;;;;;;5011304;28;20570;-67
2020/12/10 03:09:59;;;;;;;56.53;31.43;;;5.70;99.90;;;;;;5026850;28;20738;-67
2020/12/10 03:12:43;;;;;;;46.03;28.50;;;5.70;99.90;;;;;;5020223;28;20643;-67
2020/12/10 03:15:28;;;;;;;48.27;28.80;;;5.70;99.90;;;;;;5017932;28;21251;-67
2020/12/10 03:18:13;;;;;;;48.30;30.00;;;5.60;99.90;;;;;;5033534;28;20720;-67
2020/12/10 03:20:58;;;;;;;47.07;27.80;;;5.60;99.90;;;;;;5016994;28;20733;-67
2020/12/10 03:23:42;;;;;;;46.93;28.37;;;5.60;99.90;;;;;;5028067;28;20641;-66
2020/12/10 03:26:27;;;;;;;49.30;29.50;;;5.60;99.90;;;;;;5022101;28;20599;-67
2020/12/10 03:29:11;;;;;;;44.43;28.30;;;5.60;99.90;;;;;;5020237;28;20731;-67
2020/12/10 03:31:56;;;;;;;44.23;28.50;;;5.60;99.90;;;;;;5005310;28;20961;-66
2020/12/10 03:34:40;;;;;;;48.27;28.47;;;5.60;99.90;;;;;;5005198;28;20619;-67
2020/12/10 03:37:25;;;;;;;45.10;27.53;;;5.60;99.90;;;;;;5007614;28;20670;-67
2020/12/10 03:40:09;;;;;;;40.90;26.70;;;5.60;99.90;;;;;;5016425;28;20662;-67
2020/12/10 03:42:54;;;;;;;41.37;26.87;;;5.60;99.90;;;;;;5010157;28;20666;-67
2020/12/10 03:45:39;;;;;;;44.93;27.83;;;5.60;99.90;;;;;;5006691;28;20588;-67
2020/12/10 03:48:23;;;;;;;45.03;27.77;;;5.60;99.90;;;;;;5006830;28;20625;-67
2020/12/10 03:51:09;;;;;;;43.30;27.13;;;5.50;99.90;;;;;;5003197;28;20715;-67
2020/12/10 03:53:53;;;;;;;44.10;28.50;;;5.50;99.90;;;;;;5005335;28;20625;-66
2020/12/10 03:56:38;;;;;;;43.90;28.53;;;5.50;99.90;;;;;;4999815;28;20615;-67
2020/12/10 03:59:22;;;;;;;45.93;28.17;;;5.50;99.90;;;;;;5003841;28;20626;-67
2020/12/10 04:02:07;;;;;;;40.77;25.80;;;5.60;99.90;;;;;;5024606;28;21008;-66
2020/12/10 04:04:52;;;;;;;39.30;26.97;;;5.60;99.90;;;;;;5004861;28;20702;-67
2020/12/10 04:07:36;;;;;;;44.20;26.23;;;5.60;99.90;;;;;;5008956;28;21204;-67
2020/12/10 04:10:21;;;;;;;41.90;26.20;;;5.50;99.90;;;;;;5005413;28;20646;-67
2020/12/10 04:13:05;;;;;;;43.03;27.10;;;5.50;99.90;;;;;;5004063;28;21969;-67
2020/12/10 04:15:50;;;;;;;42.40;25.67;;;5.60;99.90;;;;;;5003676;28;21122;-66
2020/12/10 04:18:38;;;;;;;40.23;26.90;;;5.50;99.90;;;;;;5011577;28;21183;-67
2020/12/10 04:21:22;;;;;;;42.07;26.97;;;5.50;99.90;;;;;;5010002;28;20658;-67
2020/12/10 04:24:07;;;;;;;38.63;24.77;;;5.50;99.90;;;;;;5023029;28;20706;-66
2020/12/10 04:26:51;;;;;;;37.93;25.50;;;5.50;99.90;;;;;;5017747;28;20717;-66
2020/12/10 04:29:36;;;;;;;35.63;22.70;;;5.50;99.90;;;;;;5021193;28;20637;-67
2020/12/10 04:34:01;;;;;;;35.13;22.40;;;5.50;99.90;;;;;;5090601;27;20835;-66
2020/12/10 04:36:47;;;;;;;35.80;23.37;;;5.40;99.90;;;;;;5062229;28;20594;-65
2020/12/10 04:39:32;;;;;;;33.70;24.20;;;5.50;99.90;;;;;;5057354;28;20715;-65
2020/12/10 04:42:18;;;;;;;34.00;23.83;;;5.40;99.90;;;;;;5052913;28;20660;-66
2020/12/10 04:45:03;;;;;;;36.03;23.37;;;5.40;99.90;;;;;;5044272;28;21216;-65
2020/12/10 04:47:51;;;;;;;32.70;22.57;;;5.40;99.90;;;;;;5042833;28;21191;-65
2020/12/10 04:50:39;;;;;;;36.97;23.30;;;5.40;99.90;;;;;;5049449;28;20664;-66
2020/12/10 04:53:25;;;;;;;33.87;22.10;;;5.50;99.90;;;;;;5062414;28;20646;-66
2020/12/10 04:56:10;;;;;;;33.03;23.40;;;5.40;99.90;;;;;;5057127;28;20709;-65
2020/12/10 04:58:54;;;;;;;34.83;22.73;;;5.40;99.90;;;;;;5074671;28;20728;-65
2020/12/10 05:01:39;;;;;;;35.53;23.47;;;5.40;99.90;;;;;;5064385;28;21254;-66
2020/12/10 05:04:23;;;;;;;36.87;23.47;;;5.40;99.90;;;;;;5058672;28;20590;-66
2020/12/10 05:07:08;;;;;;;37.53;23.50;;;5.40;99.90;;;;;;5055330;28;20613;-66
2020/12/10 05:09:57;;;;;;;39.10;23.50;;;5.40;99.90;;;;;;5057322;28;20629;-66
2020/12/10 05:12:41;;;;;;;35.40;22.50;;;5.40;99.90;;;;;;5073015;28;20721;-66
2020/12/10 05:15:34;;;;;;;31.93;21.90;;;5.40;99.90;;;;;;5060949;28;20609;-66
2020/12/10 05:18:27;;;;;;;33.80;22.00;;;5.40;99.90;;;;;;5059046;28;20588;-66
2020/12/10 05:21:15;;;;;;;32.53;22.23;;;5.30;99.90;;;;;;5050596;28;20653;-65
2020/12/10 05:24:18;;;;;;;33.90;21.93;;;5.40;99.90;;;;;;5059234;28;20665;-66
2020/12/10 05:27:20;;;;;;;36.20;22.47;;;5.40;99.90;;;;;;5057710;28;20655;-65
2020/12/10 05:30:05;;;;;;;29.20;20.27;;;5.50;99.90;;;;;;5061369;28;20675;-66
2020/12/10 05:32:50;;;;;;;31.23;21.57;;;5.40;99.90;;;;;;5061261;28;20711;-65
2020/12/10 05:35:34;;;;;;;32.20;22.37;;;5.40;99.90;;;;;;5057201;28;20633;-66
2020/12/10 05:38:19;;;;;;;31.47;21.20;;;5.40;99.90;;;;;;5064452;28;20608;-66
2020/12/10 05:41:23;;;;;;;34.10;21.93;;;5.40;99.90;;;;;;5053410;28;20636;-66
2020/12/10 05:44:25;;;;;;;32.07;21.47;;;5.40;99.90;;;;;;5061802;28;20653;-66
2020/12/10 05:47:09;;;;;;;32.13;21.83;;;5.40;99.90;;;;;;5062449;28;20752;-65
2020/12/10 05:49:55;;;;;;;33.53;22.13;;;5.40;99.90;;;;;;5050344;28;20629;-66
2020/12/10 05:53:06;;;;;;;36.77;22.80;;;5.40;99.90;;;;;;5048787;28;20704;-65
2020/12/10 05:55:51;;;;;;;37.67;23.90;;;5.40;99.90;;;;;;5049589;28;21307;-65
2020/12/10 05:58:46;;;;;;;31.83;21.37;;;5.40;99.90;;;;;;5050815;28;20617;-65
2020/12/10 06:01:33;;;;;;;35.10;21.60;;;5.40;99.90;;;;;;5044022;28;20745;-65
2020/12/10 06:04:18;;;;;;;39.00;23.30;;;5.40;99.90;;;;;;5045651;28;20629;-65
2020/12/10 06:07:04;;;;;;;35.60;22.10;;;5.40;99.90;;;;;;5058250;28;20590;-64
2020/12/10 06:09:49;;;;;;;39.27;23.20;;;5.40;99.90;;;;;;5046354;28;21129;-66
2020/12/10 06:12:34;;;;;;;40.83;25.27;;;5.50;99.90;;;;;;5060530;28;20650;-65
2020/12/10 06:15:27;;;;;;;38.20;23.60;;;5.40;99.90;;;;;;5037448;28;20788;-65
2020/12/10 06:18:13;;;;;;;41.23;25.20;;;5.40;99.90;;;;;;5048721;28;20656;-65
2020/12/10 06:20:58;;;;;;;41.43;24.27;;;5.40;99.90;;;;;;5060374;28;20634;-65
2020/12/10 06:23:42;;;;;;;45.80;26.03;;;5.30;99.90;;;;;;5037588;28;20974;-65
2020/12/10 06:26:27;;;;;;;50.67;26.00;;;5.30;99.90;;;;;;5045063;28;21262;-65
2020/12/10 06:29:33;;;;;;;47.20;27.07;;;5.30;99.90;;;;;;5042507;28;21141;-65
2020/12/10 06:32:18;;;;;;;45.80;26.57;;;5.30;99.90;;;;;;5052823;28;20661;-65
2020/12/10 06:35:05;;;;;;;45.30;25.30;;;5.20;99.90;;;;;;5042519;28;20633;-65
2020/12/10 06:37:49;;;;;;;49.10;25.50;;;5.20;99.90;;;;;;5059782;28;20676;-65
2020/12/10 06:40:35;;;;;;;45.43;26.63;;;5.20;99.90;;;;;;5032605;28;21111;-66
2020/12/10 06:43:35;;;;;;;50.10;28.60;;;5.30;99.90;;;;;;5038385;28;20737;-65
2020/12/10 06:46:19;;;;;;;53.27;29.10;;;5.30;99.90;;;;;;5037749;28;20582;-65
2020/12/10 06:49:04;;;;;;;51.87;28.53;;;5.20;99.90;;;;;;5053768;28;20588;-65
2020/12/10 06:52:18;;;;;;;52.03;27.30;;;5.20;99.90;;;;;;5034661;28;20625;-65
2020/12/10 06:55:06;;;;;;;48.23;26.50;;;5.20;99.90;;;;;;5047007;28;20581;-65
2020/12/10 06:58:15;;;;;;;57.83;28.60;;;5.20;99.90;;;;;;5048482;28;20606;-65
2020/12/10 07:01:00;;;;;;;51.03;27.43;;;5.20;99.90;;;;;;5043863;28;20760;-66
2020/12/10 07:03:45;;;;;;;51.77;28.33;;;5.20;99.90;;;;;;5058240;28;21261;-66
2020/12/10 07:06:29;;;;;;;53.80;28.27;;;5.20;99.90;;;;;;5044634;28;21196;-66
2020/12/10 07:09:14;;;;;;;55.70;34.67;;;5.20;99.90;;;;;;5048118;28;21089;-66
2020/12/10 07:11:59;;;;;;;48.27;27.87;;;5.30;99.90;;;;;;5045613;28;20215;-65
2020/12/10 07:14:44;;;;;;;43.67;24.43;;;5.30;99.90;;;;;;5042972;28;20605;-66
2020/12/10 07:17:29;;;;;;;43.20;23.67;;;5.40;99.90;;;;;;5047085;28;20621;-66
2020/12/10 07:20:14;;;;;;;44.93;23.73;;;5.40;99.90;;;;;;5017663;28;20646;-66
2020/12/10 07:23:00;;;;;;;41.17;22.40;;;5.40;99.90;;;;;;5052319;28;20677;-65
2020/12/10 07:25:45;;;;;;;38.20;21.60;;;5.30;99.90;;;;;;5055928;28;20621;-65
2020/12/10 07:28:29;;;;;;;44.03;23.97;;;5.30;99.90;;;;;;5048298;28;20609;-65
2020/12/10 07:31:16;;;;;;;41.87;23.57;;;5.40;99.90;;;;;;5041546;28;20723;-66
2020/12/10 07:34:00;;;;;;;32.90;20.60;;;5.30;99.90;;;;;;5049677;28;20593;-65
2020/12/10 07:36:51;;;;;;;36.10;19.57;;;5.30;99.90;;;;;;5060058;28;20622;-65
2020/12/10 07:39:35;;;;;;;36.50;22.13;;;5.20;99.90;;;;;;5054057;28;20663;-65
2020/12/10 07:42:20;;;;;;;35.07;21.50;;;5.20;99.90;;;;;;5063450;28;20652;-65
2020/12/10 07:45:23;;;;;;;37.83;23.33;;;5.30;99.90;;;;;;5045603;28;20622;-65
2020/12/10 07:48:08;;;;;;;34.33;21.83;;;5.30;99.90;;;;;;5049582;28;20609;-65
2020/12/10 07:50:52;;;;;;;38.40;23.83;;;5.20;99.90;;;;;;5051550;28;20621;-65
2020/12/10 07:53:37;;;;;;;40.83;23.30;;;5.20;99.90;;;;;;5054444;28;20646;-66
2020/12/10 07:56:22;;;;;;;37.23;23.30;;;5.20;99.90;;;;;;5048675;28;20617;-65
2020/12/10 07:59:14;;;;;;;37.70;22.37;;;5.10;99.90;;;;;;5049553;28;20620;-65
2020/12/10 08:02:00;;;;;;;43.23;25.20;;;5.10;99.90;;;;;;5060915;28;20657;-65
2020/12/10 08:04:44;;;;;;;46.63;25.40;;;5.10;99.90;;;;;;5062939;28;20626;-65
2020/12/10 08:07:29;;;;;;;41.37;24.00;;;5.00;99.90;;;;;;5052954;28;20695;-65
2020/12/10 08:10:26;;;;;;;38.10;22.60;;;5.00;99.90;;;;;;5045333;28;20676;-65
2020/12/10 08:13:18;;;;;;;43.87;23.13;;;5.10;99.90;;;;;;5054297;28;20648;-65
2020/12/10 08:16:09;;;;;;;40.33;23.40;;;5.10;99.90;;;;;;5045289;28;20796;-65
2020/12/10 08:18:54;;;;;;;40.63;23.90;;;5.10;99.90;;;;;;5057738;28;20672;-65
2020/12/10 08:21:38;;;;;;;37.73;21.37;;;5.10;99.90;;;;;;5044240;28;20680;-65
2020/12/10 08:24:44;;;;;;;40.33;23.70;;;5.10;99.90;;;;;;5045336;28;20652;-65
2020/12/10 08:27:33;;;;;;;41.67;22.97;;;5.10;99.90;;;;;;5042669;28;21207;-65
2020/12/10 08:30:18;;;;;;;41.77;24.40;;;5.10;99.90;;;;;;5056924;28;20628;-66
2020/12/10 08:33:03;;;;;;;42.73;24.33;;;5.10;99.90;;;;;;5058749;22;20665;-65
2020/12/10 08:35:48;;;;;;;43.23;24.07;;;5.10;99.90;;;;;;5050004;28;20641;-65
2020/12/10 08:38:32;;;;;;;43.97;25.03;;;5.10;99.90;;;;;;5029232;28;20712;-68
2020/12/10 08:41:32;;;;;;;51.20;27.87;;;5.10;99.90;;;;;;5031602;28;20995;-68
2020/12/10 08:44:17;;;;;;;49.70;27.50;;;5.10;99.90;;;;;;5039614;28;21235;-68
2020/12/10 08:47:02;;;;;;;55.80;27.60;;;5.10;99.90;;;;;;5031421;28;20908;-68
2020/12/10 08:50:23;;;;;;;52.70;27.60;;;5.10;99.90;;;;;;5031337;28;20637;-68
2020/12/10 08:53:12;;;;;;;54.57;28.73;;;5.10;99.90;;;;;;5033103;28;20764;-68
2020/12/10 08:55:58;;;;;;;56.40;29.80;;;5.00;99.90;;;;;;5049674;28;20565;-68
2020/12/10 08:58:42;;;;;;;60.97;29.70;;;5.00;99.90;;;;;;5052864;28;20614;-68
2020/12/10 09:01:27;;;;;;;56.77;28.57;;;5.00;99.90;;;;;;5033293;28;20634;-68
2020/12/10 09:04:11;;;;;;;54.07;29.17;;;5.10;99.90;;;;;;5028678;28;21093;-68
2020/12/10 09:06:55;;;;;;;57.00;29.70;;;5.00;99.90;;;;;;5043221;28;20640;-68
2020/12/10 09:09:40;;;;;;;53.70;28.27;;;5.00;99.90;;;;;;5039544;28;20704;-68
2020/12/10 09:12:25;;;;;;;48.37;26.73;;;4.90;99.90;;;;;;5024928;28;20606;-68
2020/12/10 09:15:09;;;;;;;48.63;26.90;;;5.00;99.90;;;;;;5030305;28;20676;-68
2020/12/10 09:17:54;;;;;;;50.47;27.47;;;4.90;99.90;;;;;;5044617;28;20956;-68
2020/12/10 09:20:40;;;;;;;48.77;26.43;;;4.90;99.90;;;;;;5048842;28;20632;-68
2020/12/10 09:23:25;;;;;;;53.87;27.80;;;4.90;99.90;;;;;;5037746;28;20680;-68
2020/12/10 09:26:14;;;;;;;48.10;26.10;;;4.90;99.90;;;;;;5030528;28;20702;-68
2020/12/10 09:29:00;;;;;;;49.03;26.90;;;5.00;99.90;;;;;;5037063;28;20606;-68
2020/12/10 09:31:45;;;;;;;47.30;27.10;;;5.00;99.90;;;;;;5047762;28;20988;-68
2020/12/10 09:34:30;;;;;;;41.83;25.10;;;5.00;99.90;;;;;;5031836;28;21263;-68
2020/12/10 09:37:14;;;;;;;46.87;25.30;;;5.10;99.90;;;;;;5036824;28;21004;-68
2020/12/10 09:39:59;;;;;;;45.03;25.67;;;5.00;99.90;;;;;;5047618;28;20649;-68
2020/12/10 09:42:45;;;;;;;42.07;24.23;;;5.00;99.90;;;;;;5036101;28;20606;-68
2020/12/10 09:45:30;;;;;;;41.33;25.10;;;5.00;99.90;;;;;;5026223;28;20959;-68
2020/12/10 09:48:14;;;;;;;41.47;24.17;;;5.00;99.90;;;;;;5034450;28;20836;-68
2020/12/10 09:50:59;;;;;;;40.93;24.57;;;4.90;99.90;;;;;;5035546;28;20680;-68
2020/12/10 09:53:49;;;;;;;40.63;25.17;;;5.00;99.90;;;;;;5030818;28;20701;-68
2020/12/10 09:59:41;;;;;;;39.73;22.50;;;5.00;99.90;;;;;;5041930;28;21302;-68
2020/12/10 10:02:26;;;;;;;38.50;22.73;;;4.90;99.90;;;;;;5033179;28;20616;-67
2020/12/10 10:05:11;;;;;;;39.40;23.57;;;4.90;99.90;;;;;;5049008;28;20975;-67
2020/12/10 10:07:55;;;;;;;42.03;24.20;;;4.80;99.90;;;;;;5049629;28;21305;-68
2020/12/10 10:10:39;;;;;;;35.77;21.80;;;4.90;99.90;;;;;;5034183;28;20964;-67
2020/12/10 10:13:24;;;;;;;37.77;23.47;;;4.90;99.90;;;;;;5032496;28;21055;-68
2020/12/10 10:16:08;;;;;;;43.47;23.23;;;5.00;99.90;;;;;;5035071;28;21171;-68
2020/12/10 10:18:53;;;;;;;43.63;25.00;;;4.90;99.90;;;;;;5033814;28;20628;-68
2020/12/10 10:21:37;;;;;;;41.33;23.40;;;4.90;99.90;;;;;;5034499;28;20747;-67
2020/12/10 10:24:23;;;;;;;43.63;25.47;;;5.00;99.90;;;;;;5032952;28;20807;-68
2020/12/10 10:27:07;;;;;;;46.47;25.83;;;5.00;99.90;;;;;;5029385;28;21018;-68
2020/12/10 10:29:52;;;;;;;52.77;27.73;;;4.90;99.90;;;;;;5032117;28;20657;-67
2020/12/10 10:32:38;;;;;;;47.77;28.20;;;4.90;99.90;;;;;;5035804;28;21069;-67
2020/12/10 10:35:24;;;;;;;52.40;28.67;;;4.90;99.90;;;;;;5048105;28;20605;-67
2020/12/10 10:38:09;;;;;;;48.17;27.73;;;4.90;99.90;;;;;;5032157;28;20578;-67
2020/12/10 10:40:53;;;;;;;49.87;28.77;;;4.90;99.90;;;;;;5047217;28;20764;-67
2020/12/10 10:43:39;;;;;;;55.50;29.27;;;5.00;99.90;;;;;;5033299;28;20661;-68
2020/12/10 10:46:24;;;;;;;49.60;28.97;;;5.00;99.90;;;;;;5029524;28;20586;-67
2020/12/10 10:49:09;;;;;;;57.40;31.07;;;5.00;99.90;;;;;;5034130;28;20610;-68
2020/12/10 10:51:53;;;;;;;51.77;30.70;;;5.00;99.90;;;;;;5032862;28;20633;-68
2020/12/10 10:54:37;;;;;;;58.90;28.87;;;5.00;99.90;;;;;;5042959;28;20673;-68
2020/12/10 10:57:22;;;;;;;55.77;28.90;;;5.00;99.90;;;;;;5033669;28;20688;-67
2020/12/10 11:00:06;;;;;;;54.03;29.40;;;5.00;99.90;;;;;;5044186;28;20808;-67
2020/12/10 11:02:51;;;;;;;58.87;30.07;;;5.10;99.90;;;;;;5031762;28;21114;-67
2020/12/10 11:05:35;;;;;;;60.30;30.47;;;5.10;99.90;;;;;;5040855;28;20697;-68
2020/12/10 11:08:20;;;;;;;57.60;29.73;;;5.10;99.90;;;;;;5044137;28;20617;-67
2020/12/10 11:11:04;;;;;;;50.90;28.33;;;5.10;99.90;;;;;;5029428;28;20720;-67
2020/12/10 11:13:49;;;;;;;50.87;30.50;;;5.10;99.90;;;;;;5034121;28;20672;-67
2020/12/10 11:16:34;;;;;;;59.70;30.63;;;5.10;99.90;;;;;;5028479;28;20663;-68
2020/12/10 11:19:18;;;;;;;51.77;29.53;;;5.10;99.90;;;;;;5031137;28;20621;-67
2020/12/10 11:22:03;;;;;;;53.33;29.67;;;5.10;99.90;;;;;;5031031;28;20707;-68
2020/12/10 11:24:47;;;;;;;54.63;30.83;;;5.10;99.90;;;;;;5032402;28;20685;-68
2020/12/10 11:27:32;;;;;;;54.00;29.53;;;5.10;99.90;;;;;;5049873;28;20609;-67
2020/12/10 11:30:17;;;;;;;52.10;30.10;;;5.10;99.90;;;;;;5021346;28;20639;-67
2020/12/10 11:33:04;;;;;;;55.90;29.13;;;5.20;99.90;;;;;;5032168;28;20920;-67
2020/12/10 11:35:48;;;;;;;56.07;29.20;;;5.10;99.90;;;;;;5043804;28;20621;-68
2020/12/10 11:38:33;;;;;;;56.27;30.80;;;5.20;99.90;;;;;;5033756;28;20972;-67
2020/12/10 11:41:21;;;;;;;54.23;30.30;;;5.20;99.90;;;;;;5034273;28;20784;-67
2020/12/10 11:44:06;;;;;;;53.77;30.00;;;5.20;99.90;;;;;;5045981;28;21297;-67
2020/12/10 11:46:50;;;;;;;54.97;30.00;;;5.20;99.90;;;;;;5049265;28;20606;-68
2020/12/10 11:49:35;;;;;;;52.47;30.63;;;5.20;99.90;;;;;;5030903;28;20577;-67
2020/12/10 11:52:19;;;;;;;53.37;27.77;;;5.20;99.90;;;;;;5033913;28;20679;-68
2020/12/10 11:55:04;;;;;;;56.50;29.40;;;5.20;99.90;;;;;;5031542;28;20649;-67
2020/12/10 11:57:49;;;;;;;51.90;29.13;;;5.20;99.90;;;;;;5032290;28;20661;-68
2020/12/10 12:00:34;;;;;;;54.07;29.40;;;5.20;99.90;;;;;;5028291;28;20652;-67
2020/12/10 12:03:18;;;;;;;52.83;29.00;;;5.20;99.90;;;;;;5045488;28;20653;-68
2020/12/10 12:06:02;;;;;;;51.27;29.30;;;5.30;99.90;;;;;;5028877;28;20621;-67
2020/12/10 12:08:47;;;;;;;54.10;28.67;;;5.30;99.90;;;;;;5030192;28;20641;-68
2020/12/10 12:11:34;;;;;;;56.00;29.63;;;5.30;99.90;;;;;;5044666;28;20638;-68
2020/12/10 12:14:18;;;;;;;59.03;31.33;;;5.30;99.90;;;;;;5043046;28;20644;-68
2020/12/10 12:17:02;;;;;;;51.70;27.23;;;5.30;99.90;;;;;;5028029;28;20725;-67
2020/12/10 12:19:47;;;;;;;52.27;28.40;;;5.40;99.90;;;;;;5030642;28;21196;-67
2020/12/10 12:22:33;;;;;;;54.63;29.17;;;5.30;99.90;;;;;;5031107;28;20624;-67
2020/12/10 12:25:17;;;;;;;50.40;27.47;;;5.30;99.90;;;;;;5045151;28;20638;-67
2020/12/10 12:28:02;;;;;;;50.43;28.10;;;5.30;99.90;;;;;;5032656;28;20928;-67
2020/12/10 12:30:49;;;;;;;51.43;27.43;;;5.30;99.90;;;;;;5027860;28;20630;-67
2020/12/10 12:33:33;;;;;;;48.03;28.20;;;5.30;99.90;;;;;;5031741;28;20816;-67
2020/12/10 12:36:18;;;;;;;50.00;28.03;;;5.30;99.90;;;;;;5031699;28;20740;-67
2020/12/10 12:39:06;;;;;;;51.97;28.80;;;5.30;99.90;;;;;;5030722;28;20713;-67
2020/12/10 12:41:53;;;;;;;54.93;30.50;;;5.30;99.90;;;;;;5022240;28;20653;-67
2020/12/10 12:44:38;;;;;;;44.73;27.30;;;5.30;99.90;;;;;;5038585;28;20669;-67
2020/12/10 12:47:22;;;;;;;42.37;25.70;;;5.30;99.90;;;;;;5044000;28;20683;-67
2020/12/10 12:50:07;;;;;;;51.17;27.87;;;5.30;99.90;;;;;;5030107;28;20634;-67
2020/12/10 12:52:52;;;;;;;43.07;25.23;;;5.30;99.90;;;;;;5028243;28;20615;-67
2020/12/10 12:55:37;;;;;;;46.83;26.00;;;5.30;99.90;;;;;;5036076;28;20731;-67
2020/12/10 12:58:21;;;;;;;49.60;26.67;;;5.30;99.90;;;;;;5036707;28;21019;-67
2020/12/10 13:01:06;;;;;;;45.90;24.97;;;5.30;99.90;;;;;;5031752;28;20734;-67
2020/12/10 13:03:50;;;;;;;43.77;25.93;;;5.30;99.90;;;;;;5045408;28;21037;-66
2020/12/10 13:06:35;;;;;;;44.73;25.63;;;5.30;99.90;;;;;;5044926;28;21098;-66
2020/12/10 13:09:19;;;;;;;45.77;25.10;;;5.40;99.90;;;;;;5032821;28;20720;-66
2020/12/10 13:12:05;;;;;;;49.10;27.50;;;5.30;99.90;;;;;;5030629;28;20636;-66
2020/12/10 13:14:51;;;;;;;44.00;25.30;;;5.40;99.90;;;;;;5033616;28;20988;-66
2020/12/10 13:17:35;;;;;;;46.70;26.07;;;5.40;99.90;;;;;;5033506;28;21163;-66
2020/12/10 13:20:20;;;;;;;46.43;26.47;;;5.40;99.90;;;;;;5033041;28;20759;-67
2020/12/10 13:23:04;;;;;;;47.13;26.23;;;5.30;99.90;;;;;;5032029;28;21273;-67
2020/12/10 13:25:49;;;;;;;51.43;27.87;;;5.40;99.90;;;;;;5037549;28;20613;-67
2020/12/10 13:28:33;;;;;;;45.03;26.40;;;5.30;99.90;;;;;;5037399;28;21112;-66
2020/12/10 13:31:30;;;;;;;47.23;26.33;;;5.40;99.90;;;;;;5035926;28;20626;-66
2020/12/10 13:34:14;;;;;;;48.87;27.13;;;5.40;99.90;;;;;;5030799;28;21290;-68
2020/12/10 13:36:59;;;;;;;45.77;25.93;;;5.40;99.90;;;;;;5031748;28;20601;-67
2020/12/10 13:39:45;;;;;;;57.93;29.50;;;5.40;99.90;;;;;;5041837;28;21063;-66
2020/12/10 13:42:29;;;;;;;48.97;27.60;;;5.40;99.90;;;;;;5035571;28;21195;-69
2020/12/10 13:45:14;;;;;;;50.90;27.87;;;5.40;99.90;;;;;;5026805;28;20649;-66
2020/12/10 13:47:58;;;;;;;52.63;29.30;;;5.40;99.90;;;;;;5033966;28;20700;-67
2020/12/10 13:50:42;;;;;;;44.97;27.57;;;5.40;99.90;;;;;;5046842;28;20736;-67
2020/12/10 13:53:27;;;;;;;57.53;28.70;;;5.30;99.90;;;;;;5050787;28;20636;-67
2020/12/10 13:56:15;;;;;;;55.70;30.53;;;5.30;99.90;;;;;;5031087;28;21160;-67
2020/12/10 13:59:00;;;;;;;55.23;30.20;;;5.30;99.90;;;;;;5032254;28;21084;-67
2020/12/10 14:01:46;;;;;;;54.47;30.17;;;5.30;99.90;;;;;;5038457;28;20745;-66
2020/12/10 14:04:30;;;;;;;60.63;30.30;;;5.30;99.90;;;;;;5035294;28;21285;-67
2020/12/10 14:07:15;;;;;;;55.80;29.10;;;5.30;99.90;;;;;;5035767;28;20697;-67
2020/12/10 14:09:59;;;;;;;62.00;29.67;;;5.30;99.90;;;;;;5029627;28;20654;-67
2020/12/10 14:12:44;;;;;;;48.90;26.40;;;5.30;99.90;;;;;;5029653;28;21379;-67
2020/12/10 14:15:28;;;;;;;51.20;28.13;;;5.20;99.90;;;;;;5033339;28;21064;-66
2020/12/10 14:18:13;;;;;;;53.03;27.77;;;5.20;99.90;;;;;;5019729;28;21251;-67